createdAt,value
2022-09-06T00:01:28.655Z,13.05
2022-09-06T00:04:45.181Z,13.00
2022-09-06T00:08:03.470Z,12.96
2022-09-06T00:11:20.722Z,12.89
2022-09-06T00:14:37.386Z,12.85
2022-09-06T00:17:53.598Z,12.83
2022-09-06T00:21:10.832Z,12.78
2022-09-06T00:24:27.029Z,12.69
2022-09-06T00:27:44.617Z,12.68
2022-09-06T00:31:01.506Z,12.69
2022-09-06T00:34:18.160Z,12.68
2022-09-06T00:37:34.720Z,12.73
2022-09-06T00:40:51.306Z,12.74
2022-09-06T00:44:08.256Z,12.73
2022-09-06T00:47:25.485Z,12.76
2022-09-06T00:50:42.296Z,12.68
2022-09-06T00:53:59.788Z,12.64
2022-09-06T00:57:18.042Z,12.57
2022-09-06T01:00:35.779Z,12.62
2022-09-06T01:03:53.257Z,12.57
2022-09-06T01:07:16.908Z,12.60
2022-09-06T01:11:14.174Z,12.58
2022-09-06T01:14:43.228Z,12.60
2022-09-06T01:18:07.211Z,12.58
2022-09-06T01:21:47.074Z,12.56
2022-09-06T01:25:33.406Z,12.51
2022-09-06T01:28:52.696Z,12.51
2022-09-06T01:32:15.871Z,12.40
2022-09-06T01:35:39.227Z,12.33
2022-09-06T01:38:58.221Z,12.37
2022-09-06T01:42:20.599Z,12.39
2022-09-06T01:45:44.172Z,12.38
2022-09-06T01:49:13.767Z,12.35
2022-09-06T01:52:36.302Z,12.28
2022-09-06T01:56:00.139Z,12.22
2022-09-06T01:59:39.166Z,12.25
2022-09-06T02:03:08.745Z,12.23
2022-09-06T02:06:31.979Z,12.18
2022-09-06T02:09:52.689Z,12.18
2022-09-06T02:13:12.357Z,12.05
2022-09-06T02:16:32.728Z,11.97
2022-09-06T02:19:54.619Z,12.03
2022-09-06T02:23:14.353Z,11.87
2022-09-06T02:26:34.292Z,11.89
2022-09-06T02:29:51.022Z,11.96
2022-09-06T02:33:12.517Z,12.02
2022-09-06T02:36:29.416Z,12.01
2022-09-06T02:39:46.260Z,11.94
2022-09-06T02:43:02.544Z,11.75
2022-09-06T02:46:20.111Z,11.82
2022-09-06T02:49:40.196Z,11.78
2022-09-06T02:53:10.751Z,11.82
2022-09-06T02:56:28.655Z,11.87
2022-09-06T02:59:44.827Z,11.87
2022-09-06T03:03:01.604Z,11.83
2022-09-06T03:06:18.383Z,11.82
2022-09-06T03:09:34.741Z,11.80
2022-09-06T03:12:51.974Z,11.82
2022-09-06T03:16:10.077Z,11.76
2022-09-06T03:19:26.842Z,11.75
2022-09-06T03:22:44.915Z,11.70
2022-09-06T03:26:01.846Z,11.67
2022-09-06T03:29:18.068Z,11.62
2022-09-06T03:32:34.545Z,11.60
2022-09-06T03:35:57.587Z,11.57
2022-09-06T03:39:14.459Z,11.55
2022-09-06T03:42:30.987Z,11.55
2022-09-06T03:45:49.377Z,11.53
2022-09-06T03:49:06.557Z,11.46
2022-09-06T03:52:24.263Z,11.44
2022-09-06T03:55:41.260Z,11.32
2022-09-06T03:58:57.589Z,11.28
2022-09-06T04:02:14.162Z,11.25
2022-09-06T04:05:30.637Z,11.23
2022-09-06T04:08:47.972Z,11.12
2022-09-06T04:12:04.913Z,11.02
2022-09-06T04:15:23.347Z,10.99
2022-09-06T04:18:40.185Z,10.89
2022-09-06T04:21:57.014Z,10.85
2022-09-06T04:25:15.709Z,10.93
2022-09-06T04:28:33.179Z,10.96
2022-09-06T04:31:49.508Z,10.85
2022-09-06T04:35:06.041Z,10.86
2022-09-06T04:38:22.314Z,10.79
2022-09-06T04:41:38.522Z,10.71
2022-09-06T04:44:54.712Z,10.70
2022-09-06T04:48:11.335Z,10.66
2022-09-06T04:51:28.332Z,10.65
2022-09-06T04:54:45.028Z,10.68
2022-09-06T04:58:01.410Z,10.67
2022-09-06T05:01:17.681Z,10.70
2022-09-06T05:04:34.412Z,10.63
2022-09-06T05:07:50.654Z,10.63
2022-09-06T05:11:06.936Z,10.63
2022-09-06T05:14:23.322Z,10.65
2022-09-06T05:17:40.556Z,10.71
2022-09-06T05:21:01.965Z,10.78
2022-09-06T05:24:18.790Z,10.82
2022-09-06T05:27:35.237Z,10.89
2022-09-06T05:30:52.165Z,10.88
2022-09-06T05:34:09.045Z,10.97
2022-09-06T05:37:25.388Z,10.96
2022-09-06T05:40:41.517Z,11.01
2022-09-06T05:43:58.269Z,11.07
2022-09-06T05:47:14.972Z,11.11
2022-09-06T05:50:33.556Z,11.19
2022-09-06T05:53:51.961Z,11.21
2022-09-06T05:57:08.559Z,11.15
2022-09-06T06:00:26.462Z,11.15
2022-09-06T06:03:44.013Z,11.17
2022-09-06T06:07:00.946Z,11.20
2022-09-06T06:10:23.459Z,11.25
2022-09-06T06:13:42.628Z,11.33
2022-09-06T06:17:10.590Z,11.40
2022-09-06T06:20:33.451Z,11.59
2022-09-06T06:23:51.566Z,11.71
2022-09-06T06:27:07.886Z,11.86
2022-09-06T06:30:24.625Z,12.26
2022-09-06T06:33:41.770Z,12.28
2022-09-06T06:37:01.532Z,12.34
2022-09-06T06:40:21.097Z,12.60
2022-09-06T06:43:39.027Z,12.70
2022-09-06T06:46:57.606Z,12.73
2022-09-06T06:50:16.227Z,12.83
2022-09-06T06:53:33.663Z,13.08
2022-09-06T06:56:50.440Z,13.58
2022-09-06T07:00:08.655Z,14.20
2022-09-06T07:03:25.983Z,14.76
2022-09-06T07:13:35.519Z,15.19
2022-09-06T07:16:54.524Z,15.43
2022-09-06T07:20:15.280Z,15.77
2022-09-06T07:30:09.425Z,15.62
2022-09-06T07:33:33.179Z,16.32
2022-09-06T07:40:39.597Z,16.08
2022-09-06T07:44:00.490Z,16.57
2022-09-06T07:54:29.298Z,17.26
2022-09-06T07:57:19.438Z,17.78
2022-09-06T08:00:41.932Z,18.04
2022-09-06T08:03:58.919Z,18.79
2022-09-06T08:10:38.021Z,18.64
2022-09-06T08:13:57.506Z,18.55
2022-09-06T08:17:14.421Z,18.70
2022-09-06T08:20:31.197Z,18.53
2022-09-06T08:23:50.621Z,18.66
2022-09-06T08:27:08.671Z,19.27
2022-09-06T08:30:25.864Z,19.82
2022-09-06T08:33:44.385Z,20.37
2022-09-06T08:37:02.909Z,20.54
2022-09-06T08:40:26.234Z,20.86
2022-09-06T08:43:44.616Z,21.14
2022-09-06T08:47:07.047Z,21.37
2022-09-06T08:50:24.335Z,21.39
2022-09-06T08:53:43.413Z,21.41
2022-09-06T08:57:18.971Z,21.27
2022-09-06T09:00:36.214Z,20.77
2022-09-06T09:03:54.671Z,21.65
2022-09-06T09:07:17.898Z,21.73
2022-09-06T09:10:40.378Z,21.25
2022-09-06T09:14:05.746Z,21.63
2022-09-06T09:17:28.810Z,21.83
2022-09-06T09:20:47.845Z,21.47
2022-09-06T09:24:10.428Z,21.67
2022-09-06T09:27:32.112Z,21.49
2022-09-06T09:31:02.088Z,21.36
2022-09-06T09:34:35.091Z,21.44
2022-09-06T09:37:58.117Z,21.65
2022-09-06T09:41:15.314Z,21.58
2022-09-06T09:44:32.388Z,21.50
2022-09-06T09:47:49.561Z,21.55
2022-09-06T09:51:14.099Z,21.49
2022-09-06T09:54:41.738Z,21.79
2022-09-06T09:57:57.358Z,21.73
2022-09-06T10:01:31.604Z,21.70
2022-09-06T10:04:51.909Z,21.83
2022-09-06T10:08:09.029Z,21.36
2022-09-06T10:11:28.937Z,21.12
2022-09-06T10:14:51.854Z,20.79
2022-09-06T10:18:08.339Z,20.79
2022-09-06T10:21:27.486Z,20.85
2022-09-06T10:24:51.630Z,20.70
2022-09-06T10:28:39.870Z,20.92
2022-09-06T10:32:11.969Z,20.63
2022-09-06T10:35:31.138Z,20.48
2022-09-06T10:38:59.355Z,20.44
2022-09-06T10:42:24.163Z,20.43
2022-09-06T10:45:52.981Z,20.40
2022-09-06T10:49:10.194Z,20.46
2022-09-06T10:52:31.652Z,20.49
2022-09-06T10:55:51.613Z,20.48
2022-09-06T11:02:44.228Z,20.51
2022-09-06T11:06:05.072Z,20.42
2022-09-06T11:09:28.401Z,20.35
2022-09-06T11:12:49.867Z,20.28
2022-09-06T11:16:12.820Z,20.22
2022-09-06T11:19:33.994Z,20.21
2022-09-06T11:23:16.760Z,20.15
2022-09-06T11:26:48.655Z,20.23
2022-09-06T11:30:09.776Z,20.45
2022-09-06T11:33:32.627Z,20.51
2022-09-06T11:36:55.948Z,20.45
2022-09-06T11:43:59.409Z,20.73
2022-09-06T11:47:15.923Z,20.77
2022-09-06T11:51:04.194Z,20.80
2022-09-06T11:54:50.240Z,20.72
2022-09-06T11:58:09.757Z,20.61
2022-09-06T12:01:44.902Z,20.42
2022-09-06T12:05:27.638Z,20.31
2022-09-06T12:08:44.323Z,20.27
2022-09-06T12:12:01.533Z,20.32
2022-09-06T12:15:34.972Z,20.30
2022-09-06T12:19:07.306Z,20.29
2022-09-06T12:23:09.226Z,20.38
2022-09-06T12:26:51.879Z,20.30
2022-09-06T12:30:12.215Z,20.29
2022-09-06T12:33:35.313Z,20.29
2022-09-06T12:37:02.791Z,20.36
2022-09-06T12:40:19.962Z,20.33
2022-09-06T12:43:39.442Z,20.36
2022-09-06T12:46:59.049Z,20.39
2022-09-06T12:50:26.697Z,20.37
2022-09-06T12:53:44.248Z,20.44
2022-09-06T12:57:06.123Z,20.45
2022-09-06T13:00:25.917Z,20.48
2022-09-06T13:03:50.165Z,20.47
2022-09-06T13:07:09.475Z,20.51
2022-09-06T13:10:37.607Z,20.48
2022-09-06T13:13:59.780Z,20.36
2022-09-06T13:17:18.022Z,20.41
2022-09-06T13:20:37.847Z,20.33
2022-09-06T13:23:59.808Z,20.30
2022-09-06T13:27:35.743Z,20.34
2022-09-06T13:30:53.520Z,20.36
2022-09-06T13:34:10.511Z,20.40
2022-09-06T13:37:27.611Z,20.41
2022-09-06T13:41:11.587Z,20.42
2022-09-06T13:44:24.504Z,20.47
2022-09-06T13:47:41.053Z,20.44
2022-09-06T13:50:58.119Z,20.44
2022-09-06T13:54:18.084Z,20.33
2022-09-06T13:57:35.543Z,20.36
2022-09-06T14:00:55.700Z,20.39
2022-09-06T14:04:19.748Z,20.35
2022-09-06T14:07:57.202Z,20.30
2022-09-06T14:11:25.455Z,20.27
2022-09-06T14:14:47.510Z,20.26
2022-09-06T14:18:14.250Z,20.24
2022-09-06T14:21:30.177Z,20.22
2022-09-06T14:24:47.571Z,20.20
2022-09-06T14:28:04.908Z,20.22
2022-09-06T14:31:24.051Z,20.19
2022-09-06T14:34:40.935Z,20.14
2022-09-06T14:37:57.883Z,20.13
2022-09-06T14:41:15.993Z,20.09
2022-09-06T14:44:32.795Z,20.13
2022-09-06T14:47:49.262Z,20.12
2022-09-06T14:51:07.800Z,20.14
2022-09-06T14:54:29.023Z,20.12
2022-09-06T14:57:42.840Z,20.11
2022-09-06T15:00:59.229Z,20.10
2022-09-06T15:04:18.966Z,20.10
2022-09-06T15:07:36.017Z,20.12
2022-09-06T15:11:01.816Z,20.13
2022-09-06T15:14:23.538Z,20.16
2022-09-06T15:17:42.518Z,20.14
2022-09-06T15:20:56.762Z,20.16
2022-09-06T15:24:14.252Z,20.18
2022-09-06T15:27:32.017Z,20.17
2022-09-06T15:30:51.214Z,20.17
2022-09-06T15:34:08.703Z,20.14
2022-09-06T15:37:27.048Z,20.11
2022-09-06T15:40:44.029Z,20.07
2022-09-06T15:44:03.720Z,20.01
2022-09-06T15:47:21.175Z,19.96
2022-09-06T15:50:50.740Z,19.94
2022-09-06T15:53:56.852Z,19.91
2022-09-06T15:57:14.038Z,19.89
2022-09-06T16:00:32.900Z,19.86
2022-09-06T16:03:53.715Z,19.83
2022-09-06T16:07:10.509Z,19.75
2022-09-06T16:10:27.259Z,19.72
2022-09-06T16:13:45.649Z,19.67
2022-09-06T16:17:02.988Z,19.64
2022-09-06T16:20:20.392Z,19.61
2022-09-06T16:23:37.170Z,19.57
2022-09-06T16:26:55.025Z,19.54
2022-09-06T16:30:13.500Z,19.46
2022-09-06T16:33:30.003Z,19.41
2022-09-06T16:36:46.883Z,19.39
2022-09-06T16:40:03.605Z,19.33
2022-09-06T16:43:20.826Z,19.29
2022-09-06T16:46:37.505Z,19.21
2022-09-06T16:49:54.016Z,19.16
2022-09-06T16:53:10.513Z,19.10
2022-09-06T16:56:29.074Z,19.04
2022-09-06T16:59:46.002Z,19.00
2022-09-06T17:03:02.796Z,18.93
2022-09-06T17:06:19.622Z,18.83
2022-09-06T17:09:36.078Z,18.78
2022-09-06T17:12:52.653Z,18.75
2022-09-06T17:16:23.492Z,18.70
2022-09-06T17:19:43.768Z,18.65
2022-09-06T17:23:01.751Z,18.55
2022-09-06T17:26:19.423Z,18.51
2022-09-06T17:29:36.781Z,18.45
2022-09-06T17:32:53.862Z,18.34
2022-09-06T17:36:19.400Z,18.27
2022-09-06T17:39:36.762Z,18.22
2022-09-06T17:42:54.817Z,18.14
2022-09-06T17:46:12.207Z,18.06
2022-09-06T17:49:29.740Z,17.99
2022-09-06T17:52:46.922Z,17.92
2022-09-06T17:56:03.360Z,17.87
2022-09-06T17:59:24.311Z,17.82
2022-09-06T18:02:42.240Z,17.78
2022-09-06T18:05:59.354Z,17.72
2022-09-06T18:09:20.343Z,17.62
2022-09-06T18:12:37.349Z,17.55
2022-09-06T18:15:54.635Z,17.53
2022-09-06T18:19:14.348Z,17.49
2022-09-06T18:22:31.618Z,17.43
2022-09-06T18:25:49.003Z,17.32
2022-09-06T18:29:06.847Z,17.24
2022-09-06T18:32:24.233Z,17.20
2022-09-06T18:35:41.082Z,17.13
2022-09-06T18:38:58.637Z,17.10
2022-09-06T18:42:16.467Z,17.10
2022-09-06T18:45:36.331Z,17.06
2022-09-06T18:48:53.337Z,16.98
2022-09-06T18:52:12.745Z,16.94
2022-09-06T18:55:29.518Z,16.86
2022-09-06T18:58:46.313Z,16.82
2022-09-06T19:02:02.878Z,16.81
2022-09-06T19:05:19.904Z,16.78
2022-09-06T19:08:36.954Z,16.76
2022-09-06T19:11:54.395Z,16.64
2022-09-06T19:15:11.886Z,16.64
2022-09-06T19:18:28.197Z,16.57
2022-09-06T19:21:45.560Z,16.57
2022-09-06T19:25:02.429Z,16.44
2022-09-06T19:28:20.982Z,16.42
2022-09-06T19:31:42.931Z,16.30
2022-09-06T19:34:59.364Z,16.21
2022-09-06T19:38:15.823Z,16.08
2022-09-06T19:41:32.936Z,16.07
2022-09-06T19:44:49.848Z,16.03
2022-09-06T19:48:07.227Z,16.00
2022-09-06T19:51:35.627Z,15.97
2022-09-06T19:54:52.112Z,15.92
2022-09-06T19:58:11.087Z,15.87
2022-09-06T20:01:29.532Z,15.79
2022-09-06T20:04:47.599Z,15.73
2022-09-06T20:08:04.217Z,15.68
2022-09-06T20:11:21.242Z,15.62
2022-09-06T20:14:37.839Z,15.56
2022-09-06T20:17:54.185Z,15.51
2022-09-06T20:21:11.633Z,15.42
2022-09-06T20:24:29.081Z,15.36
2022-09-06T20:27:45.589Z,15.33
2022-09-06T20:31:04.019Z,15.29
2022-09-06T20:34:23.535Z,15.17
2022-09-06T20:37:39.038Z,15.12
2022-09-06T20:40:55.549Z,15.09
2022-09-06T20:44:12.271Z,15.07
2022-09-06T20:47:28.881Z,15.01
2022-09-06T20:50:45.080Z,14.88
2022-09-06T20:54:04.378Z,14.87
2022-09-06T20:57:18.266Z,14.82
2022-09-06T21:00:34.504Z,14.75
2022-09-06T21:03:52.868Z,14.65
2022-09-06T21:07:07.476Z,14.54
2022-09-06T21:10:23.578Z,14.53
2022-09-06T21:13:40.530Z,14.50
2022-09-06T21:16:56.964Z,14.42
2022-09-06T21:20:14.587Z,14.36
2022-09-06T21:23:32.220Z,14.30
2022-09-06T21:26:49.862Z,14.26
2022-09-06T21:30:06.072Z,14.22
2022-09-06T21:33:22.550Z,14.14
2022-09-06T21:36:41.239Z,14.16
2022-09-06T21:39:57.821Z,14.04
2022-09-06T21:43:14.188Z,13.96
2022-09-06T21:46:33.661Z,13.91
2022-09-06T21:49:50.682Z,13.84
2022-09-06T21:53:06.864Z,13.82
2022-09-06T21:56:25.066Z,13.74
2022-09-06T21:59:41.375Z,13.76
2022-09-06T22:02:57.615Z,13.72
2022-09-06T22:06:22.101Z,13.69
2022-09-06T22:09:38.533Z,13.68
2022-09-06T22:12:54.904Z,13.66
2022-09-06T22:16:14.741Z,13.63
2022-09-06T22:19:31.406Z,13.58
2022-09-06T22:22:49.388Z,13.63
2022-09-06T22:26:14.067Z,13.62
2022-09-06T22:29:31.121Z,13.56
2022-09-06T22:32:47.570Z,13.51
2022-09-06T22:36:04.496Z,13.46
2022-09-06T22:39:21.397Z,13.48
2022-09-06T22:42:38.252Z,13.46
2022-09-06T22:45:55.400Z,13.42
2022-09-06T22:49:12.051Z,13.35
2022-09-06T22:52:28.937Z,13.33
2022-09-06T22:55:46.222Z,13.33
2022-09-06T22:59:03.986Z,13.26
2022-09-06T23:02:20.442Z,13.21
2022-09-06T23:05:38.725Z,13.18
2022-09-06T23:08:55.498Z,13.20
2022-09-06T23:12:13.300Z,13.14
2022-09-06T23:15:30.581Z,13.13
2022-09-06T23:18:46.795Z,13.11
2022-09-06T23:22:03.519Z,13.02
2022-09-06T23:25:20.377Z,13.04
2022-09-06T23:28:38.222Z,13.07
2022-09-06T23:31:54.666Z,13.06
2022-09-06T23:35:12.123Z,13.09
2022-09-06T23:38:28.783Z,13.10
2022-09-06T23:41:45.390Z,13.08
2022-09-06T23:45:04.334Z,13.05
2022-09-06T23:48:24.568Z,13.00
2022-09-06T23:51:41.297Z,12.94
2022-09-06T23:54:57.776Z,12.91
2022-09-06T23:58:14.667Z,12.92
